Time,TemperatureF,DewpointF,PressureIn,WindDirection,WindDirectionDegrees,WindSpeedMPH,WindSpeedGustMPH,Humidity,HourlyPrecipIn,Conditions,Clouds,dailyrainin,SoftwareType,DateUTC
2013-01-01 00:00:00,44.6,35.1,30.11,South,186,0.0,3.0,69,0.00,,---,0.01,VWS V14.00,2013-01-01 05:00:00,
2013-01-01 00:01:00,44.6,35.1,30.11,South,186,0.0,0.0,69,0.00,,---,0.00,VWS V14.00,2013-01-01 05:01:00,
2013-01-01 00:06:00,44.5,35.0,30.12,South,186,0.0,2.0,69,0.00,,---,0.00,VWS V14.00,2013-01-01 05:06:00,
2013-01-01 00:10:00,45.0,36.5,30.09,South,169,0.0,2.0,72,0.00,,---,0.00,VWS V14.00,2013-01-01 05:10:00,
2013-01-01 00:11:00,44.4,35.2,30.12,South,186,0.0,0.0,70,0.00,,---,0.00,VWS V14.00,2013-01-01 05:11:00,
2013-01-01 00:16:00,44.4,35.6,30.11,South,186,0.0,1.0,71,0.00,,---,0.00,VWS V14.00,2013-01-01 05:16:00,
2013-01-01 00:20:00,45.1,36.3,30.08,South,169,0.0,2.0,71,0.00,,---,0.00,VWS V14.00,2013-01-01 05:20:00,
2013-01-01 00:21:00,44.4,35.6,30.11,South,186,0.0,1.0,71,0.00,,---,0.00,VWS V14.00,2013-01-01 05:21:00,
2013-01-01 00:26:00,44.4,35.6,30.11,South,186,0.0,1.0,71,0.00,,---,0.00,VWS V14.00,2013-01-01 05:26:00,
2013-01-01 00:30:00,45.3,36.5,30.08,South,178,0.0,2.0,71,0.00,,---,0.00,VWS V14.00,2013-01-01 05:30:00,
2013-01-01 00:31:00,44.5,36.0,30.11,South,184,0.0,2.0,72,0.00,,---,0.00,VWS V14.00,2013-01-01 05:31:00,
2013-01-01 00:36:00,44.5,36.0,30.08,South,169,0.0,2.0,72,0.00,,---,0.00,VWS V14.00,2013-01-01 05:36:00,
2013-01-01 00:40:00,45.4,36.6,30.08,South,173,0.0,2.0,71,0.00,,---,0.00,VWS V14.00,2013-01-01 05:40:00,
2013-01-01 00:41:00,44.5,35.7,30.09,South,169,0.0,0.0,71,0.00,,---,0.00,VWS V14.00,2013-01-01 05:41:00,
2013-01-01 00:46:00,44.5,36.0,30.10,South,169,0.0,1.0,72,0.00,,---,0.00,VWS V14.00,2013-01-01 05:46:00,
2013-01-01 00:50:00,45.5,36.7,30.08,SW,223,2.0,6.0,71,0.00,,---,0.00,VWS V14.00,2013-01-01 05:50:00,
2013-01-01 00:51:00,44.6,36.2,30.09,South,169,0.0,0.0,72,0.00,,---,0.00,VWS V14.00,2013-01-01 05:51:00,
2013-01-01 00:56:00,44.7,35.9,30.09,South,169,0.0,0.0,71,0.00,,---,0.00,VWS V14.00,2013-01-01 05:56:00,
2013-01-01 01:00:00,45.7,36.5,30.08,SW,217,0.0,4.0,70,0.00,,---,0.00,VWS V14.00,2013-01-01 06:00:00,
2013-01-01 01:01:00,44.8,36.0,30.10,South,169,0.0,0.0,71,0.00,,---,0.00,VWS V14.00,2013-01-01 06:01:00,
2013-01-01 01:06:00,44.9,36.4,30.08,South,169,1.0,2.0,72,0.00,,---,0.00,VWS V14.00,2013-01-01 06:06:00,
2013-01-01 01:10:00,45.9,37.0,30.08,South,170,0.0,6.0,71,0.00,,---,0.00,VWS V14.00,2013-01-01 06:10:00,
2013-01-01 01:11:00,45.0,36.5,30.08,South,169,0.0,0.0,72,0.00,,---,0.00,VWS V14.00,2013-01-01 06:11:00,
2013-01-01 01:16:00,45.1,36.3,30.08,South,169,0.0,1.0,71,0.00,,---,0.00,VWS V14.00,2013-01-01 06:16:00,
2013-01-01 01:20:00,45.8,36.9,30.08,South,182,0.0,2.0,71,0.00,,---,0.00,VWS V14.00,2013-01-01 06:20:00,
2013-01-01 01:21:00,45.2,36.4,30.08,South,169,1.0,1.0,71,0.00,,---,0.00,VWS V14.00,2013-01-01 06:21:00,
2013-01-01 01:26:00,45.2,36.4,30.08,South,178,0.0,2.0,71,0.00,,---,0.00,VWS V14.00,2013-01-01 06:26:00,
2013-01-01 01:30:00,45.9,37.0,30.09,South,182,0.0,2.0,71,0.00,,---,0.00,VWS V14.00,2013-01-01 06:30:00,
2013-01-01 01:31:00,45.3,36.5,30.08,South,178,0.0,1.0,71,0.00,,---,0.00,VWS V14.00,2013-01-01 06:31:00,
2013-01-01 01:36:00,45.4,36.6,30.07,South,173,1.0,2.0,71,0.00,,---,0.00,VWS V14.00,2013-01-01 06:36:00,
2013-01-01 01:40:00,46.0,37.5,30.08,SSW,211,0.0,4.0,72,0.00,,---,0.00,VWS V14.00,2013-01-01 06:40:00,
2013-01-01 01:41:00,45.4,36.6,30.08,South,174,0.0,2.0,71,0.00,,---,0.00,VWS V14.00,2013-01-01 06:41:00,
2013-01-01 01:46:00,45.5,36.7,30.08,SW,233,1.0,2.0,71,0.00,,---,0.00,VWS V14.00,2013-01-01 06:46:00,
2013-01-01 01:50:00,46.1,37.6,30.08,SSW,208,0.0,2.0,72,0.00,,---,0.00,VWS V14.00,2013-01-01 06:50:00,
2013-01-01 01:51:00,45.5,36.7,30.08,SW,223,0.0,2.0,71,0.00,,---,0.00,VWS V14.00,2013-01-01 06:51:00,
2013-01-01 01:56:00,45.6,36.8,30.08,SW,223,2.0,2.0,71,0.00,,---,0.00,VWS V14.00,2013-01-01 06:56:00,
2013-01-01 02:00:00,46.1,38.3,30.08,SSW,192,0.0,4.0,74,0.00,,---,0.00,VWS V14.00,2013-01-01 07:00:00,
2013-01-01 02:01:00,45.7,36.5,30.08,SW,217,0.0,4.0,70,0.00,,---,0.00,VWS V14.00,2013-01-01 07:01:00,
2013-01-01 02:06:00,45.8,37.0,30.08,South,191,0.0,6.0,71,0.00,,---,0.00,VWS V14.00,2013-01-01 07:06:00,
2013-01-01 02:10:00,46.0,38.9,30.07,SSW,192,0.0,1.0,76,0.00,,---,0.00,VWS V14.00,2013-01-01 07:10:00,
2013-01-01 02:11:00,45.9,36.7,30.08,South,171,0.0,1.0,70,0.00,,---,0.00,VWS V14.00,2013-01-01 07:11:00,
2013-01-01 02:16:00,45.8,37.0,30.08,South,182,0.0,2.0,71,0.00,,---,0.00,VWS V14.00,2013-01-01 07:16:00,
2013-01-01 02:20:00,45.8,38.7,30.07,SSW,196,0.0,5.0,76,0.00,,---,0.00,VWS V14.00,2013-01-01 07:20:00,
2013-01-01 02:21:00,45.8,37.0,30.09,South,182,0.0,0.0,71,0.00,,---,0.00,VWS V14.00,2013-01-01 07:21:00,
2013-01-01 02:26:00,45.9,37.0,30.09,South,182,1.0,2.0,71,0.00,,---,0.00,VWS V14.00,2013-01-01 07:26:00,
2013-01-01 02:30:00,45.7,39.2,30.07,SSW,202,0.0,4.0,78,0.00,,---,0.00,VWS V14.00,2013-01-01 07:30:00,
2013-01-01 02:31:00,45.9,37.4,30.09,South,182,0.0,1.0,72,0.00,,---,0.00,VWS V14.00,2013-01-01 07:31:00,
2013-01-01 02:36:00,46.0,37.5,30.08,SSW,211,0.0,4.0,72,0.00,,---,0.00,VWS V14.00,2013-01-01 07:36:00,
2013-01-01 02:40:00,45.6,39.5,30.07,SSW,207,0.0,3.0,79,0.00,,---,0.00,VWS V14.00,2013-01-01 07:40:00,
2013-01-01 02:41:00,46.0,37.5,30.08,SSW,211,0.0,1.0,72,0.00,,---,0.00,VWS V14.00,2013-01-01 07:41:00,
2013-01-01 02:46:00,46.0,37.5,30.08,SSW,208,0.0,2.0,72,0.00,,---,0.00,VWS V14.00,2013-01-01 07:46:00,
2013-01-01 02:50:00,45.2,39.7,30.08,SW,219,0.0,2.0,81,0.00,,---,0.00,VWS V14.00,2013-01-01 07:50:00,
2013-01-01 02:51:00,46.1,37.6,30.08,SSW,207,0.0,2.0,72,0.00,,---,0.00,VWS V14.00,2013-01-01 07:51:00,
2013-01-01 02:56:00,46.1,37.9,30.07,South,185,1.0,4.0,73,0.00,,---,0.00,VWS V14.00,2013-01-01 07:56:00,
2013-01-01 03:00:00,44.9,40.4,30.08,SW,219,0.0,2.0,84,0.00,,---,0.01,VWS V14.00,2013-01-01 08:00:00,
2013-01-01 03:01:00,46.1,38.3,30.08,SSW,192,0.0,1.0,74,0.00,,---,0.00,VWS V14.00,2013-01-01 08:01:00,
2013-01-01 03:06:00,46.1,39.0,30.08,SSW,192,0.0,1.0,76,0.00,,---,0.00,VWS V14.00,2013-01-01 08:06:00,
2013-01-01 03:10:00,44.4,40.5,30.07,SW,219,0.0,2.0,86,0.05,,---,0.02,VWS V14.00,2013-01-01 08:10:00,
2013-01-01 03:11:00,46.0,38.9,30.07,SSW,192,0.0,2.0,76,0.00,,---,0.00,VWS V14.00,2013-01-01 08:11:00,
2013-01-01 03:16:00,45.8,38.7,30.07,South,190,0.0,2.0,76,0.00,,---,0.00,VWS V14.00,2013-01-01 08:16:00,
2013-01-01 03:20:00,44.0,40.7,30.06,SW,219,0.0,1.0,88,0.05,,---,0.03,VWS V14.00,2013-01-01 08:20:00,
2013-01-01 03:21:00,45.8,38.7,30.07,SSW,196,1.0,1.0,76,0.00,,---,0.00,VWS V14.00,2013-01-01 08:21:00,
2013-01-01 03:26:00,45.8,39.0,30.08,SSW,198,0.0,4.0,77,0.00,,---,0.00,VWS V14.00,2013-01-01 08:26:00,
2013-01-01 03:30:00,43.6,40.9,30.06,SW,219,0.0,2.0,90,0.05,,---,0.03,VWS V14.00,2013-01-01 08:30:00,
2013-01-01 03:31:00,45.7,39.2,30.07,SSE,157,0.0,2.0,78,0.00,,---,0.00,VWS V14.00,2013-01-01 08:31:00,
2013-01-01 03:36:00,45.6,39.2,30.07,SSW,194,0.0,2.0,78,0.00,,---,0.00,VWS V14.00,2013-01-01 08:36:00,
2013-01-01 03:40:00,43.4,41.0,30.07,SW,219,0.0,1.0,91,0.00,,---,0.03,VWS V14.00,2013-01-01 08:40:00,
2013-01-01 03:41:00,45.6,39.5,30.06,South,183,0.0,1.0,79,0.00,,---,0.00,VWS V14.00,2013-01-01 08:41:00,
2013-01-01 03:46:00,45.4,39.9,30.08,SW,222,0.0,2.0,81,0.00,,---,0.00,VWS V14.00,2013-01-01 08:46:00,
2013-01-01 03:50:00,43.3,40.8,30.07,SW,219,0.0,0.0,91,0.00,,---,0.04,VWS V14.00,2013-01-01 08:50:00,
2013-01-01 03:51:00,45.2,40.0,30.08,SW,219,0.0,0.0,82,0.00,,---,0.00,VWS V14.00,2013-01-01 08:51:00,
2013-01-01 03:56:00,45.0,40.2,30.08,SW,219,0.0,1.0,83,0.00,,---,0.01,VWS V14.00,2013-01-01 08:56:00,
2013-01-01 04:00:00,43.2,41.0,30.06,SW,219,0.0,0.0,92,0.00,,---,0.04,VWS V14.00,2013-01-01 09:00:00,
2013-01-01 04:01:00,44.8,40.3,30.08,SW,219,2.0,2.0,84,0.00,,---,0.01,VWS V14.00,2013-01-01 09:01:00,
2013-01-01 04:06:00,44.5,40.6,30.08,SW,219,0.0,2.0,86,0.05,,---,0.02,VWS V14.00,2013-01-01 09:06:00,
2013-01-01 04:10:00,43.2,41.0,30.07,SW,219,0.0,0.0,92,0.00,,---,0.05,VWS V14.00,2013-01-01 09:10:00,
2013-01-01 04:11:00,44.3,40.7,30.07,SW,219,0.0,0.0,87,0.05,,---,0.02,VWS V14.00,2013-01-01 09:11:00,
2013-01-01 04:16:00,44.1,40.5,30.06,SW,219,0.0,0.0,87,0.05,,---,0.02,VWS V14.00,2013-01-01 09:16:00,
2013-01-01 04:20:00,43.2,41.3,30.07,SW,219,0.0,0.0,93,0.10,,---,0.06,VWS V14.00,2013-01-01 09:20:00,
2013-01-01 04:21:00,43.9,40.6,30.06,SW,219,0.0,0.0,88,0.05,,---,0.03,VWS V14.00,2013-01-01 09:21:00,
2013-01-01 04:26:00,43.7,40.7,30.06,SW,219,0.0,0.0,89,0.05,,---,0.03,VWS V14.00,2013-01-01 09:26:00,
2013-01-01 04:30:00,43.1,41.2,30.08,SW,219,0.0,0.0,93,0.17,,---,0.10,VWS V14.00,2013-01-01 09:30:00,
2013-01-01 04:31:00,43.6,40.9,30.07,SW,219,0.0,0.0,90,0.05,,---,0.03,VWS V14.00,2013-01-01 09:31:00,
2013-01-01 04:36:00,43.4,40.7,30.07,SW,219,0.0,1.0,90,0.00,,---,0.03,VWS V14.00,2013-01-01 09:36:00,
2013-01-01 04:40:00,43.1,41.2,30.07,SW,219,0.0,0.0,93,0.18,,---,0.14,VWS V14.00,2013-01-01 09:40:00,
2013-01-01 04:41:00,43.3,40.8,30.07,SW,219,0.0,0.0,91,0.00,,---,0.03,VWS V14.00,2013-01-01 09:41:00,
2013-01-01 04:46:00,43.3,40.8,30.06,SW,219,0.0,0.0,91,0.00,,---,0.04,VWS V14.00,2013-01-01 09:46:00,
2013-01-01 04:50:00,43.1,41.5,30.08,SW,219,0.0,0.0,94,0.11,,---,0.16,VWS V14.00,2013-01-01 09:50:00,
2013-01-01 04:51:00,43.2,40.8,30.07,SW,219,0.0,0.0,91,0.00,,---,0.04,VWS V14.00,2013-01-01 09:51:00,
2013-01-01 04:56:00,43.2,41.0,30.06,SW,219,0.0,0.0,92,0.00,,---,0.04,VWS V14.00,2013-01-01 09:56:00,
2013-01-01 05:00:00,43.2,41.6,30.08,SW,219,0.0,0.0,94,0.11,,---,0.17,VWS V14.00,2013-01-01 10:00:00,
2013-01-01 05:01:00,43.2,41.0,30.07,SW,219,0.0,0.0,92,0.00,,---,0.04,VWS V14.00,2013-01-01 10:01:00,
2013-01-01 05:06:00,43.2,41.0,30.07,SW,219,0.0,0.0,92,0.00,,---,0.04,VWS V14.00,2013-01-01 10:06:00,
2013-01-01 05:10:00,43.2,41.9,30.08,SW,219,0.0,0.0,95,0.11,,---,0.19,VWS V14.00,2013-01-01 10:10:00,
2013-01-01 05:11:00,43.2,41.0,30.07,SW,219,0.0,0.0,92,0.00,,---,0.05,VWS V14.00,2013-01-01 10:11:00,
2013-01-01 05:16:00,43.2,41.3,30.07,SW,219,0.0,0.0,93,0.10,,---,0.06,VWS V14.00,2013-01-01 10:16:00,
2013-01-01 05:20:00,43.2,41.9,30.08,SW,219,0.0,0.0,95,0.10,,---,0.20,VWS V14.00,2013-01-01 10:20:00,
2013-01-01 05:21:00,43.2,41.3,30.08,SW,219,0.0,0.0,93,0.12,,---,0.07,VWS V14.00,2013-01-01 10:21:00,
2013-01-01 05:26:00,43.1,41.2,30.08,SW,219,0.0,0.0,93,0.26,,---,0.09,VWS V14.00,2013-01-01 10:26:00,
2013-01-01 05:30:00,43.3,42.0,30.08,SW,219,0.0,0.0,95,0.09,,---,0.22,VWS V14.00,2013-01-01 10:30:00,
2013-01-01 05:31:00,43.1,41.2,30.08,SW,219,0.0,0.0,93,0.17,,---,0.10,VWS V14.00,2013-01-01 10:31:00,
2013-01-01 05:36:00,43.1,41.2,30.07,SW,219,0.0,0.0,93,0.26,,---,0.12,VWS V14.00,2013-01-01 10:36:00,
2013-01-01 05:40:00,43.4,42.1,30.09,SW,219,0.0,0.0,95,0.10,,---,0.24,VWS V14.00,2013-01-01 10:40:00,
2013-01-01 05:41:00,43.1,41.2,30.08,SW,219,0.0,0.0,93,0.18,,---,0.14,VWS V14.00,2013-01-01 10:41:00,
2013-01-01 05:46:00,43.1,41.2,30.08,SW,219,0.0,0.0,93,0.15,,---,0.15,VWS V14.00,2013-01-01 10:46:00,
2013-01-01 05:50:00,43.4,42.1,30.10,SW,219,0.0,0.0,95,0.11,,---,0.25,VWS V14.00,2013-01-01 10:50:00,
2013-01-01 05:51:00,43.1,41.5,30.08,SW,219,0.0,0.0,94,0.11,,---,0.16,VWS V14.00,2013-01-01 10:51:00,
2013-01-01 05:56:00,43.2,41.6,30.08,SW,219,0.0,0.0,94,0.11,,---,0.17,VWS V14.00,2013-01-01 10:56:00,
2013-01-01 06:00:00,43.4,42.1,30.10,SW,219,0.0,0.0,95,0.10,,---,0.27,VWS V14.00,2013-01-01 11:00:00,
2013-01-01 06:01:00,43.2,41.6,30.08,SW,219,0.0,0.0,94,0.09,,---,0.17,VWS V14.00,2013-01-01 11:01:00,
2013-01-01 06:06:00,43.2,41.6,30.08,SW,219,0.0,0.0,94,0.07,,---,0.18,VWS V14.00,2013-01-01 11:06:00,
2013-01-01 06:10:00,43.4,42.1,30.10,SW,219,0.0,0.0,95,0.09,,---,0.28,VWS V14.00,2013-01-01 11:10:00,
2013-01-01 06:11:00,43.2,41.9,30.08,SW,219,0.0,0.0,95,0.11,,---,0.19,VWS V14.00,2013-01-01 11:11:00,
2013-01-01 06:16:00,43.2,41.9,30.08,SW,219,0.0,0.0,95,0.10,,---,0.20,VWS V14.00,2013-01-01 11:16:00,
2013-01-01 06:20:00,43.4,42.3,30.10,SW,219,0.0,0.0,96,0.12,,---,0.31,VWS V14.00,2013-01-01 11:20:00,
2013-01-01 06:21:00,43.3,42.0,30.08,SW,219,0.0,0.0,95,0.11,,---,0.21,VWS V14.00,2013-01-01 11:21:00,
2013-01-01 06:26:00,43.3,42.0,30.08,SW,219,0.0,0.0,95,0.11,,---,0.21,VWS V14.00,2013-01-01 11:26:00,
2013-01-01 06:30:00,43.6,42.5,30.09,SW,219,0.0,0.0,96,0.06,,---,0.32,VWS V14.00,2013-01-01 11:30:00,
2013-01-01 06:31:00,43.4,42.1,30.09,SW,219,0.0,0.0,95,0.09,,---,0.22,VWS V14.00,2013-01-01 11:31:00,
2013-01-01 06:36:00,43.4,42.1,30.09,SW,219,0.0,0.0,95,0.11,,---,0.23,VWS V14.00,2013-01-01 11:36:00,
2013-01-01 06:40:00,43.7,42.6,30.10,SW,219,0.0,0.0,96,0.09,,---,0.33,VWS V14.00,2013-01-01 11:40:00,
2013-01-01 06:41:00,43.4,42.1,30.09,SW,219,0.0,0.0,95,0.10,,---,0.24,VWS V14.00,2013-01-01 11:41:00,
2013-01-01 06:46:00,43.4,42.1,30.10,SW,219,0.0,0.0,95,0.11,,---,0.25,VWS V14.00,2013-01-01 11:46:00,
2013-01-01 06:50:00,43.7,42.6,30.09,SW,219,0.0,0.0,96,0.12,,---,0.35,VWS V14.00,2013-01-01 11:50:00,
2013-01-01 06:51:00,43.4,42.1,30.10,SW,219,0.0,0.0,95,0.09,,---,0.25,VWS V14.00,2013-01-01 11:51:00,
2013-01-01 06:56:00,43.4,42.1,30.10,SW,219,0.0,0.0,95,0.08,,---,0.26,VWS V14.00,2013-01-01 11:56:00,
2013-01-01 07:00:00,43.8,42.7,30.09,SW,219,0.0,1.0,96,0.06,,---,0.36,VWS V14.00,2013-01-01 12:00:00,
2013-01-01 07:01:00,43.4,42.1,30.10,SW,219,0.0,0.0,95,0.10,,---,0.27,VWS V14.00,2013-01-01 12:01:00,
2013-01-01 07:06:00,43.4,42.1,30.10,SW,219,0.0,0.0,95,0.09,,---,0.28,VWS V14.00,2013-01-01 12:06:00,
2013-01-01 07:10:00,43.8,42.7,30.10,SW,219,0.0,0.0,96,0.07,,---,0.37,VWS V14.00,2013-01-01 12:10:00,
2013-01-01 07:11:00,43.4,42.1,30.10,SW,219,0.0,0.0,95,0.11,,---,0.29,VWS V14.00,2013-01-01 12:11:00,
2013-01-01 07:16:00,43.4,42.1,30.10,SW,219,0.0,0.0,95,0.16,,---,0.30,VWS V14.00,2013-01-01 12:16:00,
2013-01-01 07:20:00,43.9,42.8,30.09,SW,219,0.0,0.0,96,0.07,,---,0.38,VWS V14.00,2013-01-01 12:20:00,
2013-01-01 07:21:00,43.4,42.3,30.10,SW,219,0.0,0.0,96,0.12,,---,0.31,VWS V14.00,2013-01-01 12:21:00,
2013-01-01 07:26:00,43.5,42.2,30.09,SW,219,0.0,0.0,95,0.09,,---,0.31,VWS V14.00,2013-01-01 12:26:00,
2013-01-01 07:30:00,43.9,42.8,30.09,SW,219,1.0,1.0,96,0.08,,---,0.40,VWS V14.00,2013-01-01 12:30:00,
2013-01-01 07:31:00,43.6,42.5,30.09,SW,219,0.0,0.0,96,0.06,,---,0.32,VWS V14.00,2013-01-01 12:31:00,
2013-01-01 07:36:00,43.7,42.6,30.09,SW,219,0.0,0.0,96,0.14,,---,0.33,VWS V14.00,2013-01-01 12:36:00,
2013-01-01 07:40:00,43.9,42.8,30.09,SW,219,0.0,1.0,96,0.10,,---,0.41,VWS V14.00,2013-01-01 12:40:00,
2013-01-01 07:41:00,43.7,42.6,30.10,SW,219,0.0,0.0,96,0.08,,---,0.34,VWS V14.00,2013-01-01 12:41:00,
2013-01-01 07:46:00,43.7,42.6,30.10,SW,219,0.0,0.0,96,0.14,,---,0.35,VWS V14.00,2013-01-01 12:46:00,
2013-01-01 07:50:00,43.9,42.8,30.09,SW,219,0.0,1.0,96,0.06,,---,0.42,VWS V14.00,2013-01-01 12:50:00,
2013-01-01 07:51:00,43.7,42.6,30.09,SW,219,0.0,0.0,96,0.10,,---,0.35,VWS V14.00,2013-01-01 12:51:00,
2013-01-01 07:56:00,43.8,42.7,30.09,SW,219,0.0,0.0,96,0.06,,---,0.36,VWS V14.00,2013-01-01 12:56:00,
2013-01-01 08:00:00,43.9,42.8,30.08,SW,219,0.0,0.0,96,0.06,,---,0.43,VWS V14.00,2013-01-01 13:00:00,
2013-01-01 08:02:00,43.8,42.7,30.09,SW,219,0.0,1.0,96,0.06,,---,0.36,VWS V14.00,2013-01-01 13:02:00,
2013-01-01 08:07:00,43.8,42.7,30.10,SW,219,0.0,0.0,96,0.08,,---,0.37,VWS V14.00,2013-01-01 13:07:00,
2013-01-01 08:10:00,44.0,43.2,30.09,SW,219,0.0,0.0,97,0.04,,---,0.43,VWS V14.00,2013-01-01 13:10:00,
2013-01-01 08:12:00,43.8,42.7,30.10,SW,219,0.0,0.0,96,0.07,,---,0.38,VWS V14.00,2013-01-01 13:12:00,
2013-01-01 08:17:00,43.9,42.8,30.09,SW,219,0.0,0.0,96,0.07,,---,0.38,VWS V14.00,2013-01-01 13:17:00,
2013-01-01 08:20:00,44.0,43.2,30.08,SW,219,0.0,0.0,97,0.00,,---,0.44,VWS V14.00,2013-01-01 13:20:00,
2013-01-01 08:22:00,43.9,42.8,30.09,SW,219,0.0,0.0,96,0.06,,---,0.38,VWS V14.00,2013-01-01 13:22:00,
2013-01-01 08:27:00,43.9,42.8,30.09,SW,219,0.0,0.0,96,0.06,,---,0.39,VWS V14.00,2013-01-01 13:27:00,
2013-01-01 08:30:00,44.2,43.4,30.08,SW,219,0.0,0.0,97,0.06,,---,0.45,VWS V14.00,2013-01-01 13:30:00,
2013-01-01 08:32:00,43.9,42.8,30.09,SW,219,0.0,1.0,96,0.08,,---,0.40,VWS V14.00,2013-01-01 13:32:00,
2013-01-01 08:37:00,43.9,42.8,30.09,SW,219,0.0,1.0,96,0.10,,---,0.41,VWS V14.00,2013-01-01 13:37:00,
2013-01-01 08:40:00,44.3,43.5,30.07,SW,219,0.0,1.0,97,0.00,,---,0.45,VWS V14.00,2013-01-01 13:40:00,
2013-01-01 08:42:00,43.9,42.8,30.09,SW,219,0.0,0.0,96,0.10,,---,0.41,VWS V14.00,2013-01-01 13:42:00,
2013-01-01 08:47:00,43.9,42.8,30.09,SW,219,0.0,0.0,96,0.06,,---,0.42,VWS V14.00,2013-01-01 13:47:00,
2013-01-01 08:50:00,44.4,43.6,30.06,SW,219,0.0,2.0,97,0.07,,---,0.47,VWS V14.00,2013-01-01 13:50:00,
2013-01-01 08:52:00,43.9,42.8,30.09,SW,219,0.0,0.0,96,0.06,,---,0.42,VWS V14.00,2013-01-01 13:52:00,
2013-01-01 08:57:00,43.9,42.8,30.09,SW,219,0.0,0.0,96,0.06,,---,0.43,VWS V14.00,2013-01-01 13:57:00,
2013-01-01 09:00:00,44.5,43.7,30.07,SW,218,0.0,2.0,97,0.06,,---,0.47,VWS V14.00,2013-01-01 14:00:00,
2013-01-01 09:02:00,43.9,42.8,30.09,SW,219,0.0,0.0,96,0.06,,---,0.43,VWS V14.00,2013-01-01 14:02:00,
2013-01-01 09:07:00,43.9,43.1,30.09,SW,219,0.0,0.0,97,0.05,,---,0.43,VWS V14.00,2013-01-01 14:07:00,
2013-01-01 09:10:00,44.6,43.8,30.08,SW,218,0.0,2.0,97,0.05,,---,0.48,VWS V14.00,2013-01-01 14:10:00,
2013-01-01 09:12:00,44.0,43.2,30.09,SW,219,0.0,0.0,97,0.04,,---,0.43,VWS V14.00,2013-01-01 14:12:00,
2013-01-01 09:17:00,44.0,43.2,30.09,SW,219,0.0,0.0,97,0.00,,---,0.44,VWS V14.00,2013-01-01 14:17:00,
2013-01-01 09:20:00,44.7,43.9,30.08,SW,218,0.0,0.0,97,0.05,,---,0.49,VWS V14.00,2013-01-01 14:20:00,
2013-01-01 09:22:00,44.0,43.2,30.08,SW,219,0.0,0.0,97,0.07,,---,0.45,VWS V14.00,2013-01-01 14:22:00,
2013-01-01 09:27:00,44.1,43.3,30.08,SW,219,0.0,0.0,97,0.07,,---,0.45,VWS V14.00,2013-01-01 14:27:00,
2013-01-01 09:30:00,44.9,44.1,30.08,SW,218,0.0,1.0,97,0.00,,---,0.49,VWS V14.00,2013-01-01 14:30:00,
2013-01-01 09:32:00,44.2,43.4,30.08,SW,219,0.0,0.0,97,0.06,,---,0.45,VWS V14.00,2013-01-01 14:32:00,
2013-01-01 09:37:00,44.3,43.5,30.07,SW,219,0.0,0.0,97,0.04,,---,0.45,VWS V14.00,2013-01-01 14:37:00,
2013-01-01 09:40:00,45.2,44.4,30.08,SW,218,0.0,1.0,97,0.00,,---,0.50,VWS V14.00,2013-01-01 14:40:00,
2013-01-01 09:42:00,44.3,43.5,30.07,SW,219,0.0,0.0,97,0.00,,---,0.46,VWS V14.00,2013-01-01 14:42:00,
2013-01-01 09:47:00,44.4,43.6,30.07,SW,219,0.0,0.0,97,0.00,,---,0.46,VWS V14.00,2013-01-01 14:47:00,
2013-01-01 09:50:00,45.5,44.7,30.07,SW,218,0.0,0.0,97,0.07,,---,0.51,VWS V14.00,2013-01-01 14:50:00,
2013-01-01 09:52:00,44.4,43.6,30.06,SW,218,0.0,2.0,97,0.07,,---,0.47,VWS V14.00,2013-01-01 14:52:00,
2013-01-01 09:57:00,44.5,43.7,30.06,SW,218,0.0,2.0,97,0.07,,---,0.47,VWS V14.00,2013-01-01 14:57:00,
2013-01-01 10:00:00,46.0,45.2,30.07,SW,218,0.0,0.0,97,0.04,,---,0.52,VWS V14.00,2013-01-01 15:00:00,
2013-01-01 10:02:00,44.5,43.7,30.07,SW,218,0.0,2.0,97,0.05,,---,0.48,VWS V14.00,2013-01-01 15:02:00,
2013-01-01 10:07:00,44.5,43.7,30.07,SW,218,0.0,2.0,97,0.05,,---,0.48,VWS V14.00,2013-01-01 15:07:00,
2013-01-01 10:10:00,46.4,45.9,30.07,SW,218,0.0,0.0,98,0.04,,---,0.52,VWS V14.00,2013-01-01 15:10:00,
2013-01-01 10:12:00,44.6,43.8,30.08,SW,218,0.0,0.0,97,0.05,,---,0.48,VWS V14.00,2013-01-01 15:12:00,
2013-01-01 10:17:00,44.7,43.9,30.08,SW,218,0.0,0.0,97,0.05,,---,0.49,VWS V14.00,2013-01-01 15:17:00,
2013-01-01 10:20:00,46.9,46.4,30.07,SW,218,0.0,1.0,98,0.00,,---,0.52,VWS V14.00,2013-01-01 15:20:00,
2013-01-01 10:22:00,44.8,44.0,30.08,SW,218,0.0,0.0,97,0.05,,---,0.49,VWS V14.00,2013-01-01 15:22:00,
2013-01-01 10:27:00,44.8,44.0,30.08,SW,218,0.0,0.0,97,0.04,,---,0.49,VWS V14.00,2013-01-01 15:27:00,
2013-01-01 10:30:00,47.0,46.5,30.06,SW,218,0.0,1.0,98,0.00,,---,0.53,VWS V14.00,2013-01-01 15:30:00,
2013-01-01 10:32:00,44.9,44.1,30.08,SW,218,0.0,1.0,97,0.00,,---,0.49,VWS V14.00,2013-01-01 15:32:00,
2013-01-01 10:37:00,45.1,44.3,30.09,SW,218,0.0,1.0,97,0.00,,---,0.50,VWS V14.00,2013-01-01 15:37:00,
2013-01-01 10:40:00,47.3,46.8,30.05,SW,218,0.0,2.0,98,0.00,,---,0.53,VWS V14.00,2013-01-01 15:40:00,
2013-01-01 10:41:00,45.2,44.4,30.08,SW,218,0.0,0.0,97,0.00,,---,0.50,VWS V14.00,2013-01-01 15:41:00,
2013-01-01 10:46:00,45.4,44.6,30.08,SW,218,0.0,0.0,97,0.07,,---,0.51,VWS V14.00,2013-01-01 15:46:00,
2013-01-01 10:50:00,47.6,47.1,30.06,SW,218,0.0,0.0,98,0.04,,---,0.54,VWS V14.00,2013-01-01 15:50:00,
2013-01-01 10:51:00,45.5,44.7,30.07,SW,218,0.0,0.0,97,0.07,,---,0.51,VWS V14.00,2013-01-01 15:51:00,
2013-01-01 10:56:00,45.8,45.0,30.07,SW,218,0.0,0.0,97,0.05,,---,0.51,VWS V14.00,2013-01-01 15:56:00,
2013-01-01 11:00:00,47.9,47.4,30.06,SW,218,0.0,2.0,98,0.04,,---,0.55,VWS V14.00,2013-01-01 16:00:00,
2013-01-01 11:01:00,46.1,45.3,30.07,SW,218,0.0,0.0,97,0.04,,---,0.52,VWS V14.00,2013-01-01 16:01:00,
2013-01-01 11:06:00,46.3,45.8,30.07,SW,218,0.0,0.0,98,0.04,,---,0.52,VWS V14.00,2013-01-01 16:06:00,
2013-01-01 11:10:00,48.3,47.8,30.05,SSW,213,0.0,2.0,98,0.11,,---,0.57,VWS V14.00,2013-01-01 16:10:00,
2013-01-01 11:11:00,46.5,46.0,30.07,SW,218,0.0,0.0,98,0.04,,---,0.52,VWS V14.00,2013-01-01 16:11:00,
2013-01-01 11:16:00,46.7,46.2,30.07,SW,218,0.0,1.0,98,0.00,,---,0.52,VWS V14.00,2013-01-01 16:16:00,
2013-01-01 11:20:00,48.6,48.1,30.04,SSE,153,0.0,4.0,98,0.08,,---,0.58,VWS V14.00,2013-01-01 16:20:00,
2013-01-01 11:21:00,46.9,46.4,30.07,SW,218,0.0,1.0,98,0.00,,---,0.52,VWS V14.00,2013-01-01 16:21:00,
2013-01-01 11:26:00,47.0,46.5,30.06,SW,218,0.0,1.0,98,0.00,,---,0.53,VWS V14.00,2013-01-01 16:26:00,
2013-01-01 11:30:00,48.7,48.2,30.04,SSE,153,1.0,2.0,98,0.04,,---,0.58,VWS V14.00,2013-01-01 16:30:00,
2013-01-01 11:31:00,47.1,46.6,30.06,SW,218,0.0,0.0,98,0.00,,---,0.53,VWS V14.00,2013-01-01 16:31:00,
2013-01-01 11:36:00,47.2,46.7,30.05,SW,218,0.0,2.0,98,0.00,,---,0.53,VWS V14.00,2013-01-01 16:36:00,
2013-01-01 11:40:00,49.0,48.5,30.04,SSE,153,0.0,1.0,98,0.00,,---,0.58,VWS V14.00,2013-01-01 16:40:00,
2013-01-01 11:41:00,47.4,46.9,30.05,SW,218,0.0,0.0,98,0.00,,---,0.53,VWS V14.00,2013-01-01 16:41:00,
2013-01-01 11:46:00,47.5,47.0,30.05,SW,218,0.0,0.0,98,0.04,,---,0.54,VWS V14.00,2013-01-01 16:46:00,
2013-01-01 11:50:00,49.2,48.7,30.03,SSE,153,0.0,0.0,98,0.00,,---,0.59,VWS V14.00,2013-01-01 16:50:00,
2013-01-01 11:51:00,47.6,47.1,30.06,SW,218,0.0,0.0,98,0.04,,---,0.54,VWS V14.00,2013-01-01 16:51:00,
2013-01-01 11:56:00,47.8,47.3,30.06,SW,218,0.0,0.0,98,0.04,,---,0.54,VWS V14.00,2013-01-01 16:56:00,
2013-01-01 12:00:00,49.4,48.9,30.02,SSE,153,0.0,1.0,98,0.09,,---,0.61,VWS V14.00,2013-01-01 17:00:00,
2013-01-01 12:01:00,48.0,47.5,30.06,SW,218,0.0,0.0,98,0.04,,---,0.55,VWS V14.00,2013-01-01 17:01:00,
2013-01-01 12:06:00,48.2,47.7,30.06,SW,226,0.0,2.0,98,0.10,,---,0.56,VWS V14.00,2013-01-01 17:06:00,
2013-01-01 12:10:00,49.4,48.9,30.03,SSW,204,0.0,3.0,98,0.06,,---,0.62,VWS V14.00,2013-01-01 17:10:00,
2013-01-01 12:11:00,48.3,47.8,30.05,SSW,213,0.0,0.0,98,0.11,,---,0.57,VWS V14.00,2013-01-01 17:11:00,
2013-01-01 12:16:00,48.4,47.9,30.04,SSE,153,0.0,4.0,98,0.08,,---,0.57,VWS V14.00,2013-01-01 17:16:00,
2013-01-01 12:20:00,49.5,49.0,30.03,SSW,203,0.0,2.0,98,0.08,,---,0.63,VWS V14.00,2013-01-01 17:20:00,
2013-01-01 12:21:00,48.6,48.1,30.04,SSE,153,0.0,2.0,98,0.08,,---,0.58,VWS V14.00,2013-01-01 17:21:00,
2013-01-01 12:26:00,48.7,48.2,30.04,SSE,153,0.0,2.0,98,0.06,,---,0.58,VWS V14.00,2013-01-01 17:26:00,
2013-01-01 12:30:00,49.7,49.2,30.01,SSW,203,0.0,1.0,98,0.05,,---,0.63,VWS V14.00,2013-01-01 17:30:00,
2013-01-01 12:31:00,48.7,48.2,30.04,SSE,153,0.0,1.0,98,0.04,,---,0.58,VWS V14.00,2013-01-01 17:31:00,
2013-01-01 12:36:00,48.8,48.3,30.04,SSE,153,0.0,1.0,98,0.00,,---,0.58,VWS V14.00,2013-01-01 17:36:00,
2013-01-01 12:40:00,49.9,49.4,30.00,SSW,203,0.0,1.0,98,0.09,,---,0.65,VWS V14.00,2013-01-01 17:40:00,
2013-01-01 12:41:00,49.0,48.5,30.04,SSE,153,0.0,0.0,98,0.00,,---,0.58,VWS V14.00,2013-01-01 17:41:00,
2013-01-01 12:46:00,49.1,48.6,30.04,SSE,153,0.0,0.0,98,0.00,,---,0.59,VWS V14.00,2013-01-01 17:46:00,
2013-01-01 12:50:00,50.1,49.6,29.99,South,184,0.0,1.0,98,0.05,,---,0.65,VWS V14.00,2013-01-01 17:50:00,
2013-01-01 12:51:00,49.2,48.7,30.03,SSE,153,0.0,0.0,98,0.00,,---,0.59,VWS V14.00,2013-01-01 17:51:00,
2013-01-01 12:56:00,49.3,48.8,30.03,SSE,153,0.0,1.0,98,0.06,,---,0.60,VWS V14.00,2013-01-01 17:56:00,
2013-01-01 13:00:00,50.3,49.8,29.99,South,185,0.0,2.0,98,0.04,,---,0.66,VWS V14.00,2013-01-01 18:00:00,
2013-01-01 13:01:00,49.4,48.9,30.02,SSE,153,0.0,0.0,98,0.09,,---,0.61,VWS V14.00,2013-01-01 18:01:00,
2013-01-01 13:06:00,49.4,48.9,30.04,SSE,153,0.0,1.0,98,0.08,,---,0.61,VWS V14.00,2013-01-01 18:06:00,
2013-01-01 13:10:00,50.3,49.8,29.99,SE,138,2.0,6.0,98,0.00,,---,0.66,VWS V14.00,2013-01-01 18:10:00,
2013-01-01 13:11:00,49.4,48.9,30.03,SSW,204,1.0,2.0,98,0.06,,---,0.62,VWS V14.00,2013-01-01 18:11:00,
2013-01-01 13:16:00,49.5,49.0,30.03,SSW,203,0.0,2.0,98,0.06,,---,0.62,VWS V14.00,2013-01-01 18:16:00,
2013-01-01 13:20:00,50.3,49.8,30.00,SSE,167,5.0,6.0,98,0.00,,---,0.67,VWS V14.00,2013-01-01 18:20:00,
2013-01-01 13:21:00,49.5,49.0,30.02,SSW,203,0.0,0.0,98,0.08,,---,0.63,VWS V14.00,2013-01-01 18:21:00,
2013-01-01 13:26:00,49.6,49.1,30.03,SSW,203,0.0,1.0,98,0.07,,---,0.63,VWS V14.00,2013-01-01 18:26:00,
2013-01-01 13:30:00,50.3,49.8,29.99,SE,141,0.0,5.0,98,0.06,,---,0.68,VWS V14.00,2013-01-01 18:30:00,
2013-01-01 13:31:00,49.7,49.2,30.01,SSW,203,0.0,0.0,98,0.04,,---,0.64,VWS V14.00,2013-01-01 18:31:00,
2013-01-01 13:36:00,49.8,49.3,30.01,SSW,203,0.0,1.0,98,0.04,,---,0.64,VWS V14.00,2013-01-01 18:36:00,
2013-01-01 13:40:00,50.3,49.8,29.98,SE,141,0.0,2.0,98,0.07,,---,0.70,VWS V14.00,2013-01-01 18:40:00,
2013-01-01 13:41:00,49.9,49.4,30.01,SSW,203,0.0,1.0,98,0.09,,---,0.65,VWS V14.00,2013-01-01 18:41:00,
2013-01-01 13:46:00,50.0,49.5,30.00,SSW,203,0.0,1.0,98,0.06,,---,0.65,VWS V14.00,2013-01-01 18:46:00,
2013-01-01 13:50:00,50.3,49.8,30.00,SSW,195,0.0,4.0,98,0.10,,---,0.72,VWS V14.00,2013-01-01 18:50:00,
2013-01-01 13:51:00,50.1,49.6,29.99,South,184,0.0,0.0,98,0.04,,---,0.66,VWS V14.00,2013-01-01 18:51:00,
2013-01-01 13:56:00,50.2,49.7,29.99,South,185,1.0,2.0,98,0.04,,---,0.66,VWS V14.00,2013-01-01 18:56:00,
2013-01-01 14:00:00,50.3,49.8,29.98,SSE,153,1.0,2.0,98,0.09,,---,0.73,VWS V14.00,2013-01-01 19:00:00,
2013-01-01 14:02:00,50.3,49.8,29.99,South,185,0.0,2.0,98,0.04,,---,0.66,VWS V14.00,2013-01-01 19:02:00,
2013-01-01 14:07:00,50.3,49.8,29.99,SSE,160,0.0,6.0,98,0.04,,---,0.66,VWS V14.00,2013-01-01 19:07:00,
2013-01-01 14:10:00,50.3,49.8,29.97,SE,138,0.0,2.0,98,0.08,,---,0.74,VWS V14.00,2013-01-01 19:10:00,
2013-01-01 14:12:00,50.3,49.8,30.00,South,174,1.0,2.0,98,0.00,,---,0.66,VWS V14.00,2013-01-01 19:12:00,
2013-01-01 14:17:00,50.3,49.8,30.00,South,174,0.0,2.0,98,0.00,,---,0.67,VWS V14.00,2013-01-01 19:17:00,
2013-01-01 14:20:00,50.3,49.8,29.99,South,176,0.0,4.0,98,0.07,,---,0.75,VWS V14.00,2013-01-01 19:20:00,
2013-01-01 14:22:00,50.3,49.8,29.99,SSE,158,0.0,5.0,98,0.00,,---,0.67,VWS V14.00,2013-01-01 19:22:00,
2013-01-01 14:27:00,50.3,49.8,29.99,East,85,0.0,5.0,98,0.06,,---,0.68,VWS V14.00,2013-01-01 19:27:00,
2013-01-01 14:30:00,50.4,49.9,29.97,SSE,156,0.0,2.0,98,0.05,,---,0.76,VWS V14.00,2013-01-01 19:30:00,
2013-01-01 14:32:00,50.3,49.8,29.99,SE,141,0.0,0.0,98,0.08,,---,0.69,VWS V14.00,2013-01-01 19:32:00,
2013-01-01 14:37:00,50.3,49.8,29.99,SE,141,0.0,0.0,98,0.08,,---,0.69,VWS V14.00,2013-01-01 19:37:00,
2013-01-01 14:40:00,50.5,50.0,29.99,SSE,156,0.0,1.0,98,0.07,,---,0.77,VWS V14.00,2013-01-01 19:40:00,
2013-01-01 14:42:00,50.3,49.8,29.99,SE,141,0.0,0.0,98,0.07,,---,0.70,VWS V14.00,2013-01-01 19:42:00,
2013-01-01 14:47:00,50.3,49.8,30.00,SSW,195,0.0,4.0,98,0.14,,---,0.71,VWS V14.00,2013-01-01 19:47:00,
2013-01-01 14:50:00,50.4,49.9,29.98,SSE,157,0.0,4.0,98,0.04,,---,0.78,VWS V14.00,2013-01-01 19:50:00,
2013-01-01 14:52:00,50.3,49.8,29.99,SSE,153,2.0,2.0,98,0.10,,---,0.72,VWS V14.00,2013-01-01 19:52:00,
2013-01-01 14:57:00,50.2,49.7,29.98,SSE,153,0.0,2.0,98,0.09,,---,0.73,VWS V14.00,2013-01-01 19:57:00,
2013-01-01 15:00:00,50.4,49.9,29.98,SSE,157,0.0,3.0,98,0.08,,---,0.79,VWS V14.00,2013-01-01 20:00:00,
2013-01-01 15:02:00,50.2,49.7,29.98,SSE,153,0.0,1.0,98,0.09,,---,0.73,VWS V14.00,2013-01-01 20:02:00,
2013-01-01 15:07:00,50.3,49.8,29.97,SSE,153,0.0,1.0,98,0.08,,---,0.74,VWS V14.00,2013-01-01 20:07:00,
2013-01-01 15:10:00,50.4,49.9,29.98,SSE,157,0.0,1.0,98,0.06,,---,0.80,VWS V14.00,2013-01-01 20:10:00,
2013-01-01 15:12:00,50.3,49.8,29.97,SE,138,0.0,0.0,98,0.07,,---,0.75,VWS V14.00,2013-01-01 20:12:00,
2013-01-01 15:17:00,50.3,49.8,29.98,SE,138,0.0,1.0,98,0.07,,---,0.75,VWS V14.00,2013-01-01 20:17:00,
2013-01-01 15:20:00,50.4,49.9,29.99,SSE,157,0.0,1.0,98,0.04,,---,0.80,VWS V14.00,2013-01-01 20:20:00,
2013-01-01 15:22:00,50.3,49.8,29.99,South,180,0.0,2.0,98,0.06,,---,0.75,VWS V14.00,2013-01-01 20:22:00,
2013-01-01 15:27:00,50.4,49.9,29.98,SSE,163,1.0,2.0,98,0.05,,---,0.76,VWS V14.00,2013-01-01 20:27:00,
2013-01-01 15:30:00,50.3,49.8,30.00,SSE,157,0.0,0.0,98,0.00,,---,0.80,VWS V14.00,2013-01-01 20:30:00,
2013-01-01 15:32:00,50.4,49.9,29.98,SSE,156,0.0,0.0,98,0.05,,---,0.76,VWS V14.00,2013-01-01 20:32:00,
2013-01-01 15:37:00,50.4,49.9,29.98,SSE,156,0.0,1.0,98,0.07,,---,0.77,VWS V14.00,2013-01-01 20:37:00,
2013-01-01 15:40:00,50.3,49.8,29.99,SSE,157,0.0,0.0,98,0.00,,---,0.81,VWS V14.00,2013-01-01 20:40:00,
2013-01-01 15:42:00,50.5,50.0,29.99,SSE,156,0.0,2.0,98,0.07,,---,0.77,VWS V14.00,2013-01-01 20:42:00,
2013-01-01 15:47:00,50.5,50.0,29.98,SSE,157,1.0,2.0,98,0.04,,---,0.77,VWS V14.00,2013-01-01 20:47:00,
2013-01-01 15:50:00,50.3,49.8,29.99,SSE,157,0.0,0.0,98,0.08,,---,0.83,VWS V14.00,2013-01-01 20:50:00,
2013-01-01 15:52:00,50.5,50.0,29.98,SSE,157,0.0,1.0,98,0.04,,---,0.78,VWS V14.00,2013-01-01 20:52:00,
2013-01-01 15:57:00,50.4,49.9,29.99,SSE,157,0.0,3.0,98,0.08,,---,0.79,VWS V14.00,2013-01-01 20:57:00,
2013-01-01 16:00:00,50.2,49.7,29.99,SSE,157,0.0,0.0,98,0.06,,---,0.83,VWS V14.00,2013-01-01 21:00:00,
2013-01-01 16:02:00,50.4,49.9,29.98,SSE,157,0.0,1.0,98,0.08,,---,0.79,VWS V14.00,2013-01-01 21:02:00,
2013-01-01 16:07:00,50.4,49.9,29.98,SSE,157,0.0,1.0,98,0.06,,---,0.80,VWS V14.00,2013-01-01 21:07:00,
2013-01-01 16:10:00,50.2,49.7,29.98,SSE,157,0.0,0.0,98,0.04,,---,0.84,VWS V14.00,2013-01-01 21:10:00,
2013-01-01 16:12:00,50.4,49.9,29.98,SSE,157,0.0,0.0,98,0.06,,---,0.80,VWS V14.00,2013-01-01 21:12:00,
2013-01-01 16:17:00,50.4,49.9,29.99,SSE,157,0.0,0.0,98,0.05,,---,0.80,VWS V14.00,2013-01-01 21:17:00,
2013-01-01 16:20:00,50.1,49.6,29.97,SSE,157,0.0,0.0,98,0.04,,---,0.85,VWS V14.00,2013-01-01 21:20:00,
2013-01-01 16:22:00,50.4,49.9,29.99,SSE,157,0.0,0.0,98,0.00,,---,0.80,VWS V14.00,2013-01-01 21:22:00,
2013-01-01 16:27:00,50.4,49.9,29.99,SSE,157,0.0,0.0,98,0.00,,---,0.80,VWS V14.00,2013-01-01 21:27:00,
2013-01-01 16:30:00,50.0,49.5,29.97,SSE,157,0.0,0.0,98,0.06,,---,0.86,VWS V14.00,2013-01-01 21:30:00,
2013-01-01 16:32:00,50.3,49.8,29.99,SSE,157,0.0,0.0,98,0.00,,---,0.81,VWS V14.00,2013-01-01 21:32:00,
2013-01-01 16:37:00,50.3,49.8,29.99,SSE,157,0.0,0.0,98,0.00,,---,0.81,VWS V14.00,2013-01-01 21:37:00,
2013-01-01 16:40:00,49.9,49.4,29.97,SSE,157,0.0,0.0,98,0.06,,---,0.86,VWS V14.00,2013-01-01 21:40:00,
2013-01-01 16:42:00,50.3,49.8,29.99,SSE,157,0.0,0.0,98,0.00,,---,0.81,VWS V14.00,2013-01-01 21:42:00,
2013-01-01 16:47:00,50.3,49.8,29.99,SSE,157,0.0,0.0,98,0.06,,---,0.82,VWS V14.00,2013-01-01 21:47:00,
2013-01-01 16:50:00,49.8,49.3,29.98,SSE,157,0.0,0.0,98,0.00,,---,0.86,VWS V14.00,2013-01-01 21:50:00,
2013-01-01 16:52:00,50.3,49.8,29.99,SSE,157,0.0,0.0,98,0.08,,---,0.83,VWS V14.00,2013-01-01 21:52:00,
2013-01-01 16:57:00,50.2,49.7,29.98,SSE,157,0.0,0.0,98,0.08,,---,0.83,VWS V14.00,2013-01-01 21:57:00,
2013-01-01 17:00:00,49.7,49.2,29.98,SSE,157,0.0,0.0,98,0.00,,---,0.86,VWS V14.00,2013-01-01 22:00:00,
2013-01-01 17:02:00,50.3,49.8,29.99,SSE,157,0.0,0.0,98,0.05,,---,0.83,VWS V14.00,2013-01-01 22:02:00,
2013-01-01 17:07:00,50.2,49.7,29.98,SSE,157,0.0,0.0,98,0.04,,---,0.84,VWS V14.00,2013-01-01 22:07:00,
2013-01-01 17:10:00,49.6,49.1,29.98,SSE,157,0.0,0.0,98,0.00,,---,0.86,VWS V14.00,2013-01-01 22:10:00,
2013-01-01 17:12:00,50.2,49.7,29.99,SSE,157,0.0,0.0,98,0.04,,---,0.84,VWS V14.00,2013-01-01 22:12:00,
2013-01-01 17:17:00,50.1,49.6,29.98,SSE,157,0.0,0.0,98,0.04,,---,0.84,VWS V14.00,2013-01-01 22:17:00,
2013-01-01 17:20:00,49.6,49.1,29.98,SSE,157,0.0,0.0,98,0.00,,---,0.86,VWS V14.00,2013-01-01 22:20:00,
2013-01-01 17:22:00,50.1,49.6,29.98,SSE,157,0.0,0.0,98,0.04,,---,0.85,VWS V14.00,2013-01-01 22:22:00,
2013-01-01 17:27:00,50.1,49.6,29.98,SSE,157,0.0,0.0,98,0.04,,---,0.85,VWS V14.00,2013-01-01 22:27:00,
2013-01-01 17:30:00,49.6,49.1,29.99,SSE,157,0.0,0.0,98,0.00,,---,0.86,VWS V14.00,2013-01-01 22:30:00,
2013-01-01 17:32:00,50.0,49.5,29.97,SSE,157,0.0,0.0,98,0.06,,---,0.86,VWS V14.00,2013-01-01 22:32:00,
2013-01-01 17:37:00,49.9,49.4,29.97,SSE,157,0.0,0.0,98,0.06,,---,0.86,VWS V14.00,2013-01-01 22:37:00,
2013-01-01 17:40:00,49.5,49.0,30.00,SSE,157,0.0,0.0,98,0.00,,---,0.87,VWS V14.00,2013-01-01 22:40:00,
2013-01-01 17:42:00,49.9,49.4,29.97,SSE,157,0.0,0.0,98,0.05,,---,0.86,VWS V14.00,2013-01-01 22:42:00,
2013-01-01 17:46:00,49.9,49.4,29.97,SSE,157,0.0,0.0,98,0.04,,---,0.86,VWS V14.00,2013-01-01 22:46:00,
2013-01-01 17:50:00,49.5,49.0,30.00,SSE,157,0.0,0.0,98,0.08,,---,0.89,VWS V14.00,2013-01-01 22:50:00,
2013-01-01 17:51:00,49.8,49.3,29.98,SSE,157,0.0,0.0,98,0.00,,---,0.86,VWS V14.00,2013-01-01 22:51:00,
2013-01-01 17:56:00,49.7,49.2,29.99,SSE,157,0.0,0.0,98,0.00,,---,0.86,VWS V14.00,2013-01-01 22:56:00,
2013-01-01 18:00:00,49.5,49.0,30.00,SSE,157,0.0,0.0,98,0.05,,---,0.89,VWS V14.00,2013-01-01 23:00:00,
2013-01-01 18:01:00,49.7,49.2,29.98,SSE,157,0.0,0.0,98,0.00,,---,0.86,VWS V14.00,2013-01-01 23:01:00,
2013-01-01 18:06:00,49.7,49.2,29.97,SSE,157,0.0,0.0,98,0.00,,---,0.86,VWS V14.00,2013-01-01 23:06:00,
2013-01-01 18:10:00,49.5,49.0,30.00,SSE,157,0.0,0.0,98,0.04,,---,0.90,VWS V14.00,2013-01-01 23:10:00,
2013-01-01 18:11:00,49.6,49.1,29.98,SSE,157,0.0,0.0,98,0.00,,---,0.86,VWS V14.00,2013-01-01 23:11:00,
2013-01-01 18:16:00,49.6,49.1,29.98,SSE,157,0.0,0.0,98,0.00,,---,0.86,VWS V14.00,2013-01-01 23:16:00,
2013-01-01 18:20:00,49.5,49.0,30.00,SE,145,0.0,2.0,98,0.06,,---,0.91,VWS V14.00,2013-01-01 23:20:00,
2013-01-01 18:21:00,49.6,49.1,29.98,SSE,157,0.0,0.0,98,0.00,,---,0.86,VWS V14.00,2013-01-01 23:21:00,
2013-01-01 18:26:00,49.6,49.1,29.99,SSE,157,0.0,0.0,98,0.00,,---,0.86,VWS V14.00,2013-01-01 23:26:00,
2013-01-01 18:30:00,49.5,49.0,30.01,SE,145,0.0,1.0,98,0.08,,---,0.92,VWS V14.00,2013-01-01 23:30:00,
2013-01-01 18:31:00,49.6,49.1,29.99,SSE,157,0.0,0.0,98,0.00,,---,0.87,VWS V14.00,2013-01-01 23:31:00,
2013-01-01 18:36:00,49.5,49.0,29.99,SSE,157,0.0,0.0,98,0.00,,---,0.87,VWS V14.00,2013-01-01 23:36:00,
2013-01-01 18:40:00,49.4,48.9,30.00,NNE,27,0.0,6.0,98,0.07,,---,0.93,VWS V14.00,2013-01-01 23:40:00,
2013-01-01 18:41:00,49.5,49.0,30.00,SSE,157,0.0,0.0,98,0.06,,---,0.88,VWS V14.00,2013-01-01 23:41:00,
2013-01-01 18:46:00,49.5,49.0,30.00,SSE,157,0.0,0.0,98,0.06,,---,0.88,VWS V14.00,2013-01-01 23:46:00,
2013-01-01 18:50:00,49.1,48.6,30.00,NNE,28,0.0,2.0,98,0.06,,---,0.94,VWS V14.00,2013-01-01 23:50:00,
2013-01-01 18:51:00,49.5,49.0,30.00,SSE,157,0.0,0.0,98,0.08,,---,0.89,VWS V14.00,2013-01-01 23:51:00,
2013-01-01 18:56:00,49.5,49.0,30.00,SSE,157,0.0,0.0,98,0.08,,---,0.89,VWS V14.00,2013-01-01 23:56:00,
2013-01-01 19:00:00,48.9,48.4,30.01,NNE,27,0.0,0.0,98,0.04,,---,0.95,VWS V14.00,2013-01-02 00:00:00,
2013-01-01 19:01:00,49.5,49.0,30.00,SSE,157,0.0,0.0,98,0.05,,---,0.89,VWS V14.00,2013-01-02 00:01:00,
2013-01-01 19:06:00,49.5,49.0,30.00,SSE,157,0.0,0.0,98,0.04,,---,0.90,VWS V14.00,2013-01-02 00:06:00,
2013-01-01 19:10:00,48.8,48.3,30.01,NNE,28,0.0,0.0,98,0.04,,---,0.95,VWS V14.00,2013-01-02 00:10:00,
2013-01-01 19:11:00,49.5,49.0,30.00,SSE,157,0.0,0.0,98,0.04,,---,0.90,VWS V14.00,2013-01-02 00:11:00,
2013-01-01 19:16:00,49.5,49.0,30.00,SSE,157,0.0,0.0,98,0.06,,---,0.91,VWS V14.00,2013-01-02 00:16:00,
2013-01-01 19:20:00,48.6,48.1,30.01,NNE,30,0.0,4.0,98,0.00,,---,0.96,VWS V14.00,2013-01-02 00:20:00,
2013-01-01 19:21:00,49.5,49.0,30.00,SE,145,1.0,1.0,98,0.06,,---,0.91,VWS V14.00,2013-01-02 00:21:00,
2013-01-01 19:26:00,49.5,49.0,30.00,SE,145,0.0,1.0,98,0.08,,---,0.92,VWS V14.00,2013-01-02 00:26:00,
2013-01-01 19:30:00,48.4,47.6,30.01,ENE,59,0.0,2.0,97,0.00,,---,0.96,VWS V14.00,2013-01-02 00:30:00,
2013-01-01 19:31:00,49.6,49.1,30.00,SE,145,0.0,0.0,98,0.08,,---,0.92,VWS V14.00,2013-01-02 00:31:00,
2013-01-01 19:36:00,49.5,49.0,30.00,NNE,27,0.0,6.0,98,0.08,,---,0.93,VWS V14.00,2013-01-02 00:36:00,
2013-01-01 19:40:00,48.2,47.4,30.00,ENE,59,0.0,1.0,97,0.00,,---,0.96,VWS V14.00,2013-01-02 00:40:00,
2013-01-01 19:41:00,49.4,48.9,30.00,NNE,28,0.0,2.0,98,0.07,,---,0.94,VWS V14.00,2013-01-02 00:41:00,
2013-01-01 19:46:00,49.2,48.7,30.00,NNE,28,0.0,2.0,98,0.07,,---,0.94,VWS V14.00,2013-01-02 00:46:00,
2013-01-01 19:50:00,48.1,47.3,30.00,ENE,59,0.0,1.0,97,0.00,,---,0.96,VWS V14.00,2013-01-02 00:50:00,
2013-01-01 19:51:00,49.1,48.6,30.00,NNE,28,0.0,0.0,98,0.05,,---,0.94,VWS V14.00,2013-01-02 00:51:00,
2013-01-01 19:56:00,49.0,48.5,30.00,NNE,27,0.0,0.0,98,0.04,,---,0.94,VWS V14.00,2013-01-02 00:56:00,
2013-01-01 20:00:00,48.0,47.5,30.01,ENE,59,1.0,1.0,98,0.00,,---,0.97,VWS V14.00,2013-01-02 01:00:00,
2013-01-01 20:01:00,48.9,48.4,30.01,NNE,28,0.0,0.0,98,0.04,,---,0.95,VWS V14.00,2013-01-02 01:01:00,
2013-01-01 20:06:00,48.8,48.3,30.01,NNE,28,0.0,0.0,98,0.04,,---,0.95,VWS V14.00,2013-01-02 01:06:00,
2013-01-01 20:10:00,47.8,47.0,30.00,ENE,59,0.0,1.0,97,0.00,,---,0.97,VWS V14.00,2013-01-02 01:10:00,
2013-01-01 20:11:00,48.7,48.2,30.01,WNW,299,0.0,2.0,98,0.04,,---,0.95,VWS V14.00,2013-01-02 01:11:00,
2013-01-01 20:16:00,48.7,48.2,30.01,WNW,299,0.0,2.0,98,0.00,,---,0.95,VWS V14.00,2013-01-02 01:16:00,
2013-01-01 20:20:00,47.8,47.0,30.02,ENE,59,0.0,0.0,97,0.00,,---,0.97,VWS V14.00,2013-01-02 01:20:00,
2013-01-01 20:21:00,48.6,48.1,30.01,NNE,30,0.0,0.0,98,0.00,,---,0.96,VWS V14.00,2013-01-02 01:21:00,
2013-01-01 20:26:00,48.5,47.7,30.00,ENE,57,0.0,2.0,97,0.00,,---,0.96,VWS V14.00,2013-01-02 01:26:00,
2013-01-01 20:30:00,47.7,46.9,30.03,ENE,59,0.0,0.0,97,0.00,,---,0.98,VWS V14.00,2013-01-02 01:30:00,
2013-01-01 20:31:00,48.4,47.6,30.00,ENE,59,0.0,1.0,97,0.00,,---,0.96,VWS V14.00,2013-01-02 01:31:00,
2013-01-01 20:36:00,48.3,47.5,30.00,ENE,59,0.0,1.0,97,0.00,,---,0.96,VWS V14.00,2013-01-02 01:36:00,
2013-01-01 20:40:00,47.6,46.8,30.02,ENE,59,0.0,0.0,97,0.11,,---,1.00,VWS V14.00,2013-01-02 01:40:00,
2013-01-01 20:41:00,48.2,47.7,30.00,ENE,59,0.0,0.0,98,0.00,,---,0.96,VWS V14.00,2013-01-02 01:41:00,
2013-01-01 20:46:00,48.1,47.3,30.00,ENE,59,0.0,1.0,97,0.00,,---,0.96,VWS V14.00,2013-01-02 01:46:00,
2013-01-01 20:50:00,47.6,47.1,30.02,ENE,59,0.0,1.0,98,0.05,,---,1.00,VWS V14.00,2013-01-02 01:50:00,
2013-01-01 20:51:00,48.1,47.3,30.01,ENE,59,0.0,0.0,97,0.00,,---,0.96,VWS V14.00,2013-01-02 01:51:00,
2013-01-01 20:56:00,48.0,47.5,30.01,ENE,59,0.0,0.0,98,0.00,,---,0.96,VWS V14.00,2013-01-02 01:56:00,
2013-01-01 21:00:00,47.5,47.0,30.01,ENE,59,0.0,0.0,98,0.04,,---,1.01,VWS V14.00,2013-01-02 02:00:00,
2013-01-01 21:01:00,47.9,47.4,30.01,ENE,59,0.0,1.0,98,0.00,,---,0.97,VWS V14.00,2013-01-02 02:01:00,
2013-01-01 21:06:00,47.9,47.1,30.00,ENE,59,0.0,1.0,97,0.00,,---,0.97,VWS V14.00,2013-01-02 02:06:00,
2013-01-01 21:10:00,47.4,46.9,30.02,ENE,59,0.0,0.0,98,0.00,,---,1.01,VWS V14.00,2013-01-02 02:10:00,
2013-01-01 21:11:00,47.8,47.0,30.01,ENE,59,0.0,0.0,97,0.00,,---,0.97,VWS V14.00,2013-01-02 02:11:00,
2013-01-01 21:16:00,47.8,47.0,30.01,ENE,59,0.0,0.0,97,0.00,,---,0.97,VWS V14.00,2013-01-02 02:16:00,
2013-01-01 21:20:00,47.3,46.8,30.01,SE,127,0.0,4.0,98,0.00,,---,1.01,VWS V14.00,2013-01-02 02:20:00,
2013-01-01 21:21:00,47.7,46.9,30.02,ENE,59,0.0,0.0,97,0.00,,---,0.97,VWS V14.00,2013-01-02 02:21:00,
2013-01-01 21:26:00,47.7,46.9,30.02,ENE,59,0.0,0.0,97,0.00,,---,0.98,VWS V14.00,2013-01-02 02:26:00,
2013-01-01 21:30:00,47.3,46.8,30.00,SE,127,0.0,0.0,98,0.00,,---,1.02,VWS V14.00,2013-01-02 02:30:00,
2013-01-01 21:31:00,47.7,46.9,30.02,ENE,59,0.0,0.0,97,0.00,,---,0.98,VWS V14.00,2013-01-02 02:31:00,
2013-01-01 21:36:00,47.7,46.9,30.02,ENE,59,0.0,0.0,97,0.06,,---,0.99,VWS V14.00,2013-01-02 02:36:00,
2013-01-01 21:40:00,47.2,46.7,30.00,SE,127,0.0,0.0,98,0.00,,---,1.02,VWS V14.00,2013-01-02 02:40:00,
2013-01-01 21:41:00,47.7,46.9,30.02,ENE,59,0.0,0.0,97,0.11,,---,1.00,VWS V14.00,2013-01-02 02:41:00,
2013-01-01 21:46:00,47.6,47.1,30.02,ENE,59,0.0,1.0,98,0.07,,---,1.00,VWS V14.00,2013-01-02 02:46:00,
2013-01-01 21:50:00,47.1,46.6,30.00,SE,127,0.0,0.0,98,0.00,,---,1.02,VWS V14.00,2013-01-02 02:50:00,
2013-01-01 21:51:00,47.6,47.1,30.02,ENE,59,0.0,0.0,98,0.04,,---,1.00,VWS V14.00,2013-01-02 02:51:00,
2013-01-01 21:56:00,47.5,47.0,30.03,ENE,59,0.0,0.0,98,0.04,,---,1.01,VWS V14.00,2013-01-02 02:56:00,
2013-01-01 22:00:00,47.1,46.6,30.00,SE,127,0.0,0.0,98,0.00,,---,1.02,VWS V14.00,2013-01-02 03:00:00,
2013-01-01 22:01:00,47.5,47.0,30.01,ENE,59,0.0,0.0,98,0.04,,---,1.01,VWS V14.00,2013-01-02 03:01:00,
2013-01-01 22:06:00,47.5,47.0,30.02,ENE,59,0.0,0.0,98,0.04,,---,1.01,VWS V14.00,2013-01-02 03:06:00,
2013-01-01 22:10:00,47.1,46.6,30.00,SE,127,0.0,0.0,98,0.00,,---,1.03,VWS V14.00,2013-01-02 03:10:00,
2013-01-01 22:11:00,47.4,46.9,30.02,ENE,59,0.0,0.0,98,0.00,,---,1.01,VWS V14.00,2013-01-02 03:11:00,
2013-01-01 22:16:00,47.4,46.9,30.00,SE,127,0.0,4.0,98,0.00,,---,1.01,VWS V14.00,2013-01-02 03:16:00,
2013-01-01 22:20:00,47.1,46.6,30.00,SE,127,0.0,0.0,98,0.00,,---,1.03,VWS V14.00,2013-01-02 03:20:00,
2013-01-01 22:21:00,47.3,46.8,30.01,SE,127,0.0,0.0,98,0.00,,---,1.02,VWS V14.00,2013-01-02 03:21:00,
2013-01-01 22:26:00,47.3,46.8,30.01,SE,127,0.0,0.0,98,0.00,,---,1.02,VWS V14.00,2013-01-02 03:26:00,
2013-01-01 22:30:00,47.0,46.5,30.00,SE,127,0.0,0.0,98,0.00,,---,1.03,VWS V14.00,2013-01-02 03:30:00,
2013-01-01 22:31:00,47.3,46.8,30.00,SE,127,0.0,0.0,98,0.00,,---,1.02,VWS V14.00,2013-01-02 03:31:00,
2013-01-01 22:36:00,47.2,46.7,29.99,SE,127,0.0,0.0,98,0.00,,---,1.02,VWS V14.00,2013-01-02 03:36:00,
2013-01-01 22:40:00,47.0,46.5,30.01,SE,127,0.0,0.0,98,0.00,,---,1.03,VWS V14.00,2013-01-02 03:40:00,
2013-01-01 22:41:00,47.2,46.7,30.01,SE,127,0.0,0.0,98,0.00,,---,1.02,VWS V14.00,2013-01-02 03:41:00,
2013-01-01 22:46:00,47.1,46.6,30.00,SE,127,0.0,0.0,98,0.00,,---,1.02,VWS V14.00,2013-01-02 03:46:00,
2013-01-01 22:50:00,47.0,46.5,30.00,SE,127,0.0,0.0,98,0.00,,---,1.03,VWS V14.00,2013-01-02 03:50:00,
2013-01-01 22:51:00,47.2,46.7,30.00,SE,127,0.0,0.0,98,0.00,,---,1.02,VWS V14.00,2013-01-02 03:51:00,
2013-01-01 22:56:00,47.2,46.7,30.01,SE,127,0.0,0.0,98,0.00,,---,1.02,VWS V14.00,2013-01-02 03:56:00,
2013-01-01 23:00:00,47.0,46.5,30.01,SE,127,0.0,0.0,98,0.00,,---,0.00,VWS V14.00,2013-01-02 04:00:00,
2013-01-01 23:01:00,47.1,46.6,30.00,SE,127,0.0,0.0,98,0.00,,---,1.02,VWS V14.00,2013-01-02 04:01:00,
2013-01-01 23:06:00,47.1,46.6,30.00,SE,127,0.0,0.0,98,0.00,,---,1.03,VWS V14.00,2013-01-02 04:06:00,
2013-01-01 23:10:00,46.9,46.4,30.01,SE,130,0.0,2.0,98,0.00,,---,0.00,VWS V14.00,2013-01-02 04:10:00,
2013-01-01 23:11:00,47.1,46.6,30.00,SE,127,0.0,0.0,98,0.00,,---,1.03,VWS V14.00,2013-01-02 04:11:00,
2013-01-01 23:16:00,47.1,46.6,30.00,SE,127,0.0,0.0,98,0.00,,---,1.03,VWS V14.00,2013-01-02 04:16:00,
2013-01-01 23:20:00,46.9,46.4,30.02,WNW,286,0.0,3.0,98,0.00,,---,0.00,VWS V14.00,2013-01-02 04:20:00,
2013-01-01 23:21:00,47.1,46.6,30.00,SE,127,0.0,0.0,98,0.00,,---,1.03,VWS V14.00,2013-01-02 04:21:00,
2013-01-01 23:26:00,47.0,46.5,30.00,SE,127,0.0,0.0,98,0.00,,---,1.03,VWS V14.00,2013-01-02 04:26:00,
2013-01-01 23:30:00,46.9,46.4,30.01,WNW,286,0.0,1.0,98,0.00,,---,0.00,VWS V14.00,2013-01-02 04:30:00,
2013-01-01 23:31:00,47.0,46.5,30.00,SE,127,0.0,0.0,98,0.00,,---,1.03,VWS V14.00,2013-01-02 04:31:00,
2013-01-01 23:36:00,47.0,46.5,30.01,SE,127,0.0,0.0,98,0.00,,---,1.03,VWS V14.00,2013-01-02 04:36:00,
2013-01-01 23:40:00,46.7,46.2,30.02,NW,313,2.0,7.0,98,0.00,,---,0.00,VWS V14.00,2013-01-02 04:40:00,
2013-01-01 23:41:00,47.0,46.5,30.01,SE,127,0.0,0.0,98,0.00,,---,1.03,VWS V14.00,2013-01-02 04:41:00,
2013-01-01 23:46:00,47.0,46.5,30.00,SE,127,0.0,0.0,98,0.00,,---,1.03,VWS V14.00,2013-01-02 04:46:00,
2013-01-01 23:50:00,45.9,45.1,30.04,NNW,340,0.0,6.0,97,0.00,,---,0.00,VWS V14.00,2013-01-02 04:50:00,
2013-01-01 23:51:00,47.0,46.5,30.01,SE,127,0.0,0.0,98,0.00,,---,1.03,VWS V14.00,2013-01-02 04:51:00,
2013-01-01 23:56:00,47.0,46.5,30.01,SE,127,0.0,0.0,98,0.00,,---,1.03,VWS V14.00,2013-01-02 04:56:00,